createdAt,value
2018-04-23T00:00:27.759Z,97363.34
2018-04-23T00:02:56.562Z,97365.34
2018-04-23T00:05:27.397Z,97364.32
2018-04-23T00:07:57.288Z,97361.58
2018-04-23T00:10:28.998Z,97359.03
2018-04-23T00:12:59.703Z,97360.37
2018-04-23T00:15:28.476Z,97358.30
2018-04-23T00:17:57.272Z,97347.70
2018-04-23T00:20:26.026Z,97344.62
2018-04-23T00:22:55.583Z,97346.70
2018-04-23T00:25:24.451Z,97346.66
2018-04-23T00:27:53.386Z,97349.73
2018-04-23T00:30:22.219Z,97352.15
2018-04-23T00:32:51.732Z,97356.79
2018-04-23T00:35:22.213Z,97357.34
2018-04-23T00:37:55.828Z,97359.04
2018-04-23T00:40:26.654Z,97351.19
2018-04-23T00:42:55.929Z,97354.69
2018-04-23T00:45:26.242Z,97356.38
2018-04-23T00:47:55.000Z,97354.98
2018-04-23T00:50:24.625Z,97353.75
2018-04-23T00:53:05.048Z,97348.47
2018-04-23T00:55:33.913Z,97359.06
2018-04-23T00:58:03.465Z,97353.83
2018-04-23T01:00:35.961Z,97357.16
2018-04-23T01:03:05.601Z,97351.41
2018-04-23T01:05:34.503Z,97345.56
2018-04-23T01:08:03.449Z,97341.45
2018-04-23T01:10:32.213Z,97342.81
2018-04-23T01:13:01.517Z,97342.15
2018-04-23T01:15:30.748Z,97342.00
2018-04-23T01:18:00.033Z,97344.76
2018-04-23T01:20:30.286Z,97342.14
2018-04-23T01:23:00.188Z,97338.88
2018-04-23T01:25:29.126Z,97338.30
2018-04-23T01:27:57.899Z,97343.31
2018-04-23T01:30:26.926Z,97344.54
2018-04-23T01:32:55.705Z,97347.97
2018-04-23T01:35:25.083Z,97345.91
2018-04-23T01:37:53.944Z,97346.49
2018-04-23T01:40:25.085Z,97341.94
2018-04-23T01:42:54.726Z,97350.30
2018-04-23T01:45:23.536Z,97351.39
2018-04-23T01:47:52.705Z,97349.98
2018-04-23T01:50:21.549Z,97347.36
2018-04-23T01:52:50.377Z,97355.10
2018-04-23T01:55:19.177Z,97356.58
2018-04-23T01:57:49.483Z,97353.78
2018-04-23T02:03:12.871Z,97349.45
2018-04-23T02:05:41.782Z,97352.80
2018-04-23T02:08:11.328Z,97354.28
2018-04-23T02:10:40.145Z,97359.04
2018-04-23T02:13:09.731Z,97351.59
2018-04-23T02:15:38.494Z,97353.16
2018-04-23T02:18:07.419Z,97350.73
2018-04-23T02:20:36.997Z,97349.88
2018-04-23T02:23:05.803Z,97352.52
2018-04-23T02:25:34.760Z,97343.94
2018-04-23T02:28:03.517Z,97347.16
2018-04-23T02:30:32.353Z,97352.38
2018-04-23T02:33:01.303Z,97351.38
2018-04-23T02:35:30.103Z,97350.27
2018-04-23T02:37:58.912Z,97350.30
2018-04-23T02:40:28.836Z,97351.52
2018-04-23T02:42:57.666Z,97347.63
2018-04-23T02:45:27.093Z,97338.70
2018-04-23T02:47:56.225Z,97346.76
2018-04-23T02:50:26.768Z,97347.91
2018-04-23T02:52:55.573Z,97343.62
2018-04-23T02:55:25.263Z,97341.86
2018-04-23T02:57:54.033Z,97343.77
2018-04-23T03:00:22.857Z,97338.02
2018-04-23T03:02:53.828Z,97349.45
2018-04-23T03:05:22.702Z,97349.15
2018-04-23T03:07:53.165Z,97348.25
2018-04-23T03:10:22.596Z,97346.42
2018-04-23T03:12:52.301Z,97345.44
2018-04-23T03:15:23.260Z,97345.42
2018-04-23T03:17:52.754Z,97341.78
2018-04-23T03:20:21.545Z,97335.08
2018-04-23T03:22:50.412Z,97337.69
2018-04-23T03:25:19.825Z,97338.30
2018-04-23T03:27:48.590Z,97337.58
2018-04-23T03:30:19.329Z,97336.20
2018-04-23T03:32:49.027Z,97333.97
2018-04-23T03:35:18.625Z,97331.95
2018-04-23T03:37:48.260Z,97333.73
2018-04-23T03:40:17.631Z,97328.80
2018-04-23T03:42:46.408Z,97335.42
2018-04-23T03:45:16.061Z,97339.18
2018-04-23T03:47:44.983Z,97337.58
2018-04-23T03:50:13.827Z,97338.31
2018-04-23T03:52:42.663Z,97327.68
2018-04-23T03:55:13.395Z,97333.67
2018-04-23T03:57:43.896Z,97336.14
2018-04-23T04:00:13.692Z,97334.41
2018-04-23T04:02:43.134Z,97337.02
2018-04-23T04:05:12.438Z,97337.73
2018-04-23T04:07:41.264Z,97339.80
2018-04-23T04:10:10.012Z,97344.25
2018-04-23T04:12:50.408Z,97341.34
2018-04-23T04:15:32.501Z,97341.56
2018-04-23T04:21:18.492Z,97343.72
2018-04-23T04:23:48.129Z,97341.08
2018-04-23T04:26:16.939Z,97336.37
2018-04-23T04:28:45.717Z,97347.45
2018-04-23T04:31:14.695Z,97347.86
2018-04-23T04:33:43.491Z,97348.53
2018-04-23T04:36:12.304Z,97348.27
2018-04-23T04:38:41.195Z,97342.59
2018-04-23T04:41:10.720Z,97341.23
2018-04-23T04:43:39.490Z,97345.64
2018-04-23T04:46:08.296Z,97351.58
2018-04-23T04:48:37.935Z,97360.17
2018-04-23T04:51:07.609Z,97355.19
2018-04-23T04:53:39.694Z,97349.51
2018-04-23T04:56:09.824Z,97353.59
2018-04-23T04:58:40.074Z,97345.80
2018-04-23T05:01:09.124Z,97360.34
2018-04-23T05:03:38.644Z,97351.16
2018-04-23T05:06:09.341Z,97354.70
2018-04-23T05:08:38.156Z,97351.90
2018-04-23T05:11:08.631Z,97356.11
2018-04-23T05:13:37.552Z,97360.39
2018-04-23T05:16:06.769Z,97354.63
2018-04-23T05:18:36.521Z,97356.51
2018-04-23T05:21:05.876Z,97354.86
2018-04-23T05:23:35.541Z,97358.77
2018-04-23T05:26:05.212Z,97359.65
2018-04-23T05:28:34.307Z,97362.36
2018-04-23T05:31:06.187Z,97355.73
2018-04-23T05:33:37.797Z,97365.41
2018-04-23T05:36:09.485Z,97361.03
2018-04-23T05:38:38.380Z,97357.47
2018-04-23T05:41:10.431Z,97355.00
2018-04-23T05:43:39.876Z,97359.95
2018-04-23T05:46:08.641Z,97353.93
2018-04-23T05:48:37.830Z,97357.91
2018-04-23T05:51:07.388Z,97357.69
2018-04-23T05:53:36.225Z,97356.09
2018-04-23T05:56:05.138Z,97355.77
2018-04-23T05:58:33.887Z,97353.70
2018-04-23T06:01:03.711Z,97354.58
2018-04-23T06:03:33.317Z,97348.81
2018-04-23T06:06:03.039Z,97348.18
2018-04-23T06:08:32.554Z,97358.59
2018-04-23T06:11:02.018Z,97357.59
2018-04-23T06:13:30.844Z,97359.25
2018-04-23T06:16:00.543Z,97354.95
2018-04-23T06:18:30.183Z,97345.92
2018-04-23T06:20:58.942Z,97352.25
2018-04-23T06:23:27.774Z,97353.53
2018-04-23T06:25:56.594Z,97360.05
2018-04-23T06:28:25.409Z,97360.09
2018-04-23T06:30:54.227Z,97358.28
2018-04-23T06:33:23.024Z,97367.05
2018-04-23T06:35:51.839Z,97361.95
2018-04-23T06:38:20.628Z,97366.23
2018-04-23T06:40:49.433Z,97361.27
2018-04-23T06:43:18.201Z,97360.23
2018-04-23T06:45:48.245Z,97359.92
2018-04-23T06:48:18.126Z,97359.16
2018-04-23T06:50:46.994Z,97360.98
2018-04-23T06:53:15.899Z,97363.81
2018-04-23T06:55:44.698Z,97361.11
2018-04-23T06:58:13.627Z,97366.23
2018-04-23T07:00:43.333Z,97360.66
2018-04-23T07:03:12.110Z,97357.80
2018-04-23T07:05:40.952Z,97361.20
2018-04-23T07:08:10.730Z,97361.06
2018-04-23T07:10:39.517Z,97357.52
2018-04-23T07:13:08.248Z,97358.82
2018-04-23T07:15:37.169Z,97364.04
2018-04-23T07:18:06.004Z,97363.09
2018-04-23T07:20:34.873Z,97363.47
2018-04-23T07:23:03.985Z,97364.74
2018-04-23T07:25:32.970Z,97360.22
2018-04-23T07:28:02.552Z,97360.17
2018-04-23T07:30:31.318Z,97353.80
2018-04-23T07:33:00.264Z,97358.39
2018-04-23T07:35:29.013Z,97357.72
2018-04-23T07:37:57.860Z,97353.22
2018-04-23T07:40:26.695Z,97355.67
2018-04-23T07:42:55.530Z,97351.69
2018-04-23T07:45:25.205Z,97347.88
2018-04-23T07:47:54.135Z,97350.89
2018-04-23T07:50:22.881Z,97349.02
2018-04-23T07:52:51.928Z,97344.95
2018-04-23T07:55:21.625Z,97347.61
2018-04-23T07:57:50.442Z,97345.42
2018-04-23T08:00:20.003Z,97349.77
2018-04-23T08:02:48.797Z,97347.94
2018-04-23T08:05:17.680Z,97349.04
2018-04-23T08:07:46.659Z,97346.00
2018-04-23T08:10:15.513Z,97345.11
2018-04-23T08:12:45.184Z,97342.31
2018-04-23T08:15:14.052Z,97343.69
2018-04-23T08:20:26.532Z,97336.70
2018-04-23T08:22:55.322Z,97338.67
2018-04-23T08:25:24.079Z,97333.09
2018-04-23T08:27:52.983Z,97326.74
2018-04-23T08:30:22.554Z,97330.00
2018-04-23T08:32:51.320Z,97335.09
2018-04-23T08:35:20.219Z,97336.27
2018-04-23T08:37:48.969Z,97335.38
2018-04-23T08:40:18.528Z,97333.77
2018-04-23T08:42:47.457Z,97333.56
2018-04-23T08:45:16.542Z,97332.27
2018-04-23T08:47:46.050Z,97336.56
2018-04-23T08:50:14.914Z,97339.22
2018-04-23T08:52:43.878Z,97337.53
2018-04-23T08:55:13.449Z,97330.95
2018-04-23T08:57:42.361Z,97335.60
2018-04-23T09:00:11.865Z,97333.74
2018-04-23T09:02:41.426Z,97332.64
2018-04-23T09:05:10.218Z,97329.76
2018-04-23T09:07:39.119Z,97331.45
2018-04-23T09:10:07.929Z,97331.55
2018-04-23T09:12:37.567Z,97333.59
2018-04-23T09:15:06.335Z,97326.31
2018-04-23T09:17:35.990Z,97319.88
2018-04-23T09:20:04.752Z,97317.97
2018-04-23T09:22:33.506Z,97318.09
2018-04-23T09:25:02.341Z,97315.94
2018-04-23T09:27:31.179Z,97315.63
2018-04-23T09:29:59.927Z,97316.33
2018-04-23T09:32:28.872Z,97314.64
2018-04-23T09:34:57.751Z,97311.13
2018-04-23T09:37:26.517Z,97306.37
2018-04-23T09:39:55.436Z,97307.25
2018-04-23T09:42:25.037Z,97305.03
2018-04-23T09:44:53.801Z,97295.90
2018-04-23T09:47:22.706Z,97302.38
2018-04-23T09:49:51.866Z,97301.31
2018-04-23T09:52:20.625Z,97295.67
2018-04-23T09:54:49.484Z,97288.00
2018-04-23T09:57:18.246Z,97287.31
2018-04-23T09:59:47.068Z,97278.83
2018-04-23T10:02:21.770Z,97272.67
2018-04-23T10:04:50.520Z,97272.98
2018-04-23T10:07:20.102Z,97274.17
2018-04-23T10:09:49.098Z,97281.36
2018-04-23T10:12:17.831Z,97277.45
2018-04-23T10:14:46.630Z,97276.66
2018-04-23T10:17:15.576Z,97271.02
2018-04-23T10:19:44.317Z,97263.75
2018-04-23T10:22:13.105Z,97273.86
2018-04-23T10:24:41.928Z,97268.12
2018-04-23T10:27:12.729Z,97259.01
2018-04-23T10:29:42.381Z,97259.08
2018-04-23T10:32:11.112Z,97262.25
2018-04-23T10:34:39.890Z,97259.45
2018-04-23T10:37:09.450Z,97258.73
2018-04-23T10:39:38.225Z,97254.55
2018-04-23T10:42:07.138Z,97260.42
2018-04-23T10:44:36.013Z,97254.58
2018-04-23T10:47:04.761Z,97257.53
2018-04-23T10:49:35.233Z,97248.05
2018-04-23T10:52:04.114Z,97245.34
2018-04-23T10:54:32.967Z,97241.42
2018-04-23T10:57:02.677Z,97237.80
2018-04-23T10:59:32.297Z,97242.30
2018-04-23T11:02:01.129Z,97229.38
2018-04-23T11:04:30.001Z,97233.76
2018-04-23T11:06:58.884Z,97227.17
2018-04-23T11:09:27.614Z,97238.47
2018-04-23T11:11:56.406Z,97224.01
2018-04-23T11:14:25.176Z,97222.81
2018-04-23T11:16:53.978Z,97224.38
2018-04-23T11:19:23.747Z,97217.70
2018-04-23T11:21:53.266Z,97225.75
2018-04-23T11:24:22.019Z,97228.13
2018-04-23T11:26:51.535Z,97230.52
2018-04-23T11:29:21.326Z,97229.23
2018-04-23T11:31:50.805Z,97224.82
2018-04-23T11:34:19.538Z,97227.65
2018-04-23T11:36:49.160Z,97218.33
2018-04-23T11:39:18.878Z,97224.72
2018-04-23T11:41:47.622Z,97219.68
2018-04-23T11:44:16.421Z,97225.22
2018-04-23T11:46:45.230Z,97217.66
2018-04-23T11:49:13.996Z,97216.23
2018-04-23T11:51:43.038Z,97209.52
2018-04-23T11:54:11.808Z,97208.56
2018-04-23T11:56:41.495Z,97204.77
2018-04-23T11:59:11.159Z,97195.87
2018-04-23T12:01:39.917Z,97191.66
2018-04-23T12:04:08.695Z,97196.94
2018-04-23T12:06:38.281Z,97190.14
2018-04-23T12:09:07.092Z,97201.79
2018-04-23T12:11:35.858Z,97201.31
2018-04-23T12:14:04.732Z,97197.94
2018-04-23T12:16:33.455Z,97199.15
2018-04-23T12:19:03.012Z,97200.67
2018-04-23T12:21:31.813Z,97201.03
2018-04-23T12:24:01.370Z,97194.11
2018-04-23T12:26:30.990Z,97200.60
2018-04-23T12:31:50.625Z,97195.39
2018-04-23T12:34:19.425Z,97195.20
2018-04-23T12:36:48.194Z,97188.20
2018-04-23T12:39:17.007Z,97190.58
2018-04-23T12:41:47.212Z,97183.73
2018-04-23T12:44:15.962Z,97178.13
2018-04-23T12:46:44.701Z,97182.20
2018-04-23T12:49:13.733Z,97180.36
2018-04-23T12:51:42.628Z,97178.27
2018-04-23T12:54:12.163Z,97178.30
2018-04-23T12:56:40.961Z,97174.05
2018-04-23T12:59:09.869Z,97171.24
2018-04-23T13:01:38.636Z,97170.72
2018-04-23T13:04:07.661Z,97174.44
2018-04-23T13:06:37.287Z,97176.41
2018-04-23T13:09:06.072Z,97175.66
2018-04-23T13:11:34.882Z,97164.10
2018-04-23T13:14:04.505Z,97176.23
2018-04-23T13:16:34.069Z,97160.66
2018-04-23T13:19:02.841Z,97160.80
2018-04-23T13:21:31.691Z,97161.94
2018-04-23T13:24:00.578Z,97159.53
2018-04-23T13:26:30.179Z,97156.34
2018-04-23T13:28:59.937Z,97159.03
2018-04-23T13:31:28.766Z,97155.16
2018-04-23T13:36:32.136Z,97147.57
2018-04-23T13:39:00.891Z,97149.80
2018-04-23T13:41:29.824Z,97151.02
2018-04-23T13:43:58.593Z,97146.41
2018-04-23T13:46:27.353Z,97146.39
2018-04-23T13:48:56.250Z,97159.50
2018-04-23T13:51:25.142Z,97154.80
2018-04-23T13:53:53.933Z,97159.19
2018-04-23T13:56:23.718Z,97170.11
2018-04-23T13:58:52.478Z,97166.89
2018-04-23T14:01:21.203Z,97166.04
2018-04-23T14:03:50.869Z,97166.61
2018-04-23T14:06:19.713Z,97166.27
2018-04-23T14:08:49.220Z,97165.31
2018-04-23T14:11:18.786Z,97165.30
2018-04-23T14:13:47.639Z,97161.64
2018-04-23T14:16:16.375Z,97161.48
2018-04-23T14:18:45.265Z,97175.59
2018-04-23T14:23:49.073Z,97167.23
2018-04-23T14:26:17.830Z,97166.05
2018-04-23T14:28:46.653Z,97167.75
2018-04-23T14:31:15.515Z,97167.10
2018-04-23T14:33:44.293Z,97169.92
2018-04-23T14:36:13.921Z,97169.97
2018-04-23T14:38:42.713Z,97170.61
2018-04-23T14:41:11.456Z,97164.16
2018-04-23T14:43:40.250Z,97163.88
2018-04-23T14:46:09.825Z,97168.41
2018-04-23T14:48:38.578Z,97172.86
2018-04-23T14:51:07.308Z,97167.85
2018-04-23T14:53:36.378Z,97172.06
2018-04-23T14:56:05.113Z,97175.16
2018-04-23T14:58:34.678Z,97182.92
2018-04-23T15:01:04.293Z,97186.16
2018-04-23T15:03:33.158Z,97188.44
2018-04-23T15:06:01.899Z,97190.00
2018-04-23T15:08:34.954Z,97193.27
2018-04-23T15:11:03.704Z,97189.27
2018-04-23T15:13:32.496Z,97183.70
2018-04-23T15:16:02.047Z,97183.33
2018-04-23T15:18:34.920Z,97190.72
2018-04-23T15:21:03.810Z,97187.54
2018-04-23T15:23:32.591Z,97191.13
2018-04-23T15:26:05.023Z,97196.66
2018-04-23T15:28:35.119Z,97206.86
2018-04-23T15:31:04.019Z,97202.34
2018-04-23T15:33:32.938Z,97213.21
2018-04-23T15:36:05.306Z,97226.60
2018-04-23T15:38:34.853Z,97229.20
2018-04-23T15:41:03.896Z,97242.05
2018-04-23T15:43:32.643Z,97257.30
2018-04-23T15:46:01.533Z,97259.88
2018-04-23T15:48:30.297Z,97266.45
2018-04-23T15:50:59.105Z,97258.72
2018-04-23T15:53:27.990Z,97262.98
2018-04-23T15:55:56.824Z,97253.35
2018-04-23T15:58:25.667Z,97259.46
2018-04-23T16:00:54.418Z,97250.83
2018-04-23T16:03:24.386Z,97249.19
2018-04-23T16:05:53.158Z,97251.63
2018-04-23T16:08:21.910Z,97255.41
2018-04-23T16:10:50.660Z,97258.81
2018-04-23T16:13:19.442Z,97247.95
2018-04-23T16:15:48.246Z,97259.09
2018-04-23T16:18:17.958Z,97259.55
2018-04-23T16:20:46.801Z,97268.96
2018-04-23T16:23:15.589Z,97274.50
2018-04-23T16:25:44.424Z,97273.75
2018-04-23T16:28:13.286Z,97258.23
2018-04-23T16:30:42.385Z,97258.20
2018-04-23T16:33:11.188Z,97256.86
2018-04-23T16:35:40.067Z,97258.20
2018-04-23T16:38:08.821Z,97255.84
2018-04-23T16:40:37.683Z,97244.16
2018-04-23T16:43:06.437Z,97235.26
2018-04-23T16:45:35.189Z,97240.66
2018-04-23T16:48:04.799Z,97251.53
2018-04-23T16:50:34.467Z,97253.61
2018-04-23T16:53:03.309Z,97256.55
2018-04-23T16:55:32.176Z,97258.41
2018-04-23T16:58:00.961Z,97254.89
2018-04-23T17:00:32.629Z,97269.09
2018-04-23T17:03:02.866Z,97274.68
2018-04-23T17:05:32.424Z,97278.82
2018-04-23T17:08:02.565Z,97273.39
2018-04-23T17:10:32.331Z,97262.78
2018-04-23T17:13:02.207Z,97262.01
2018-04-23T17:15:30.964Z,97263.95
2018-04-23T17:17:59.875Z,97266.69
2018-04-23T17:20:28.765Z,97276.68
2018-04-23T17:22:57.554Z,97281.38
2018-04-23T17:25:26.430Z,97285.98
2018-04-23T17:27:56.318Z,97286.70
2018-04-23T17:30:25.115Z,97284.88
2018-04-23T17:32:53.888Z,97283.24
2018-04-23T17:35:22.652Z,97278.25
2018-04-23T17:37:52.248Z,97275.58
2018-04-23T17:40:21.812Z,97278.92
2018-04-23T17:42:51.004Z,97283.08
2018-04-23T17:47:58.309Z,97296.70
2018-04-23T17:50:27.873Z,97303.87
2018-04-23T17:52:57.403Z,97309.84
2018-04-23T17:55:26.915Z,97307.31
2018-04-23T17:57:55.701Z,97303.18
2018-04-23T18:00:25.341Z,97300.12
2018-04-23T18:02:54.125Z,97293.66
2018-04-23T18:05:22.892Z,97297.72
2018-04-23T18:07:51.684Z,97304.94
2018-04-23T18:10:20.599Z,97310.80
2018-04-23T18:12:49.350Z,97314.58
2018-04-23T18:15:18.353Z,97321.64
2018-04-23T18:17:47.166Z,97331.69
2018-04-23T18:20:15.923Z,97348.81
2018-04-23T18:22:45.482Z,97354.39
2018-04-23T18:25:14.271Z,97359.72
2018-04-23T18:27:43.197Z,97358.02
2018-04-23T18:30:11.964Z,97364.95
2018-04-23T18:32:40.907Z,97375.41
2018-04-23T18:35:12.318Z,97374.80
2018-04-23T18:37:46.191Z,97387.81
2018-04-23T18:40:14.982Z,97399.74
2018-04-23T18:42:43.737Z,97410.28
2018-04-23T18:45:13.302Z,97420.16
2018-04-23T18:47:42.045Z,97423.12
2018-04-23T18:50:10.820Z,97426.14
2018-04-23T18:52:39.664Z,97428.66
2018-04-23T18:55:08.424Z,97426.67
2018-04-23T20:53:49.655Z,97465.50
2018-04-23T20:56:22.361Z,97476.12
2018-04-23T20:58:52.096Z,97486.22
2018-04-23T21:01:21.663Z,97490.20
2018-04-23T21:08:01.772Z,97494.67
2018-04-23T21:10:54.170Z,97488.30
2018-04-23T21:13:25.838Z,97494.74
2018-04-23T21:15:56.026Z,97489.32
2018-04-23T21:21:03.139Z,97486.83
2018-04-23T21:45:56.436Z,97467.25
2018-04-23T21:48:27.603Z,97474.67
2018-04-23T21:50:56.918Z,97479.56
2018-04-23T21:59:20.979Z,97477.59
2018-04-23T22:01:50.109Z,97471.69
2018-04-23T22:04:22.255Z,97471.39
2018-04-23T22:06:51.129Z,97481.45
2018-04-23T22:11:57.381Z,97486.44
2018-04-23T22:14:28.239Z,97484.48
2018-04-23T22:19:30.223Z,97502.09
2018-04-23T22:21:59.002Z,97505.91
2018-04-23T22:24:27.797Z,97510.37
2018-04-23T22:26:56.717Z,97520.64
2018-04-23T22:29:26.363Z,97529.07
2018-04-23T22:31:55.140Z,97554.98
2018-04-23T22:34:24.560Z,97577.73
2018-04-23T22:36:53.418Z,97578.28
2018-04-23T22:39:22.194Z,97585.09
2018-04-23T22:41:50.929Z,97583.27
2018-04-23T22:44:20.584Z,97583.97
2018-04-23T22:46:49.915Z,97576.27
2018-04-23T22:49:18.656Z,97571.63
2018-04-23T22:51:48.410Z,97567.70
2018-04-23T22:54:17.427Z,97568.76
2018-04-23T22:56:46.216Z,97570.95
2018-04-23T22:59:15.066Z,97570.72
2018-04-23T23:01:44.523Z,97573.89
2018-04-23T23:04:14.055Z,97574.82
2018-04-23T23:06:43.565Z,97580.08
2018-04-23T23:09:25.272Z,97583.20
2018-04-23T23:12:00.585Z,97582.91
2018-04-23T23:14:30.459Z,97582.92
2018-04-23T23:16:59.251Z,97577.59
2018-04-23T23:19:28.926Z,97579.53
2018-04-23T23:21:57.747Z,97571.52
2018-04-23T23:24:26.532Z,97564.86
2018-04-23T23:26:55.296Z,97564.28
2018-04-23T23:29:24.053Z,97544.73
2018-04-23T23:31:53.702Z,97543.70
2018-04-23T23:34:22.471Z,97526.41
2018-04-23T23:36:51.258Z,97520.06
2018-04-23T23:39:20.789Z,97504.03
2018-04-23T23:41:49.599Z,97494.79
2018-04-23T23:44:18.347Z,97498.20
2018-04-23T23:46:47.129Z,97501.13
2018-04-23T23:49:15.977Z,97500.63
2018-04-23T23:51:44.667Z,97498.31
2018-04-23T23:54:13.593Z,97501.84
2018-04-23T23:56:42.360Z,97491.26
2018-04-23T23:59:11.889Z,97494.59
